createdAt,value
2023-05-13T00:00:00.234Z,13.33
2023-05-13T00:02:27.524Z,13.26
2023-05-13T00:04:54.616Z,13.21
2023-05-13T00:07:21.672Z,13.30
2023-05-13T00:09:48.684Z,13.24
2023-05-13T00:12:15.715Z,13.23
2023-05-13T00:14:42.691Z,13.21
2023-05-13T00:17:09.731Z,13.13
2023-05-13T00:19:36.755Z,13.16
2023-05-13T00:22:03.913Z,13.21
2023-05-13T00:24:31.263Z,13.24
2023-05-13T00:26:58.420Z,13.22
2023-05-13T00:29:25.478Z,13.23
2023-05-13T00:31:52.609Z,13.24
2023-05-13T00:34:19.771Z,13.21
2023-05-13T00:36:46.919Z,13.19
2023-05-13T00:39:13.991Z,13.16
2023-05-13T00:41:41.164Z,13.11
2023-05-13T00:44:08.236Z,13.20
2023-05-13T00:46:35.459Z,13.15
2023-05-13T00:49:03.027Z,13.19
2023-05-13T00:51:32.700Z,13.15
2023-05-13T00:54:00.122Z,13.24
2023-05-13T00:56:27.288Z,13.23
2023-05-13T00:58:54.417Z,13.15
2023-05-13T01:01:41.991Z,13.19
2023-05-13T01:04:27.211Z,13.32
2023-05-13T01:07:03.144Z,13.16
2023-05-13T01:09:58.194Z,13.17
2023-05-13T01:12:32.637Z,13.06
2023-05-13T01:15:26.794Z,13.10
2023-05-13T01:18:15.384Z,13.08
2023-05-13T01:20:43.802Z,12.88
2023-05-13T01:23:12.229Z,12.95
2023-05-13T01:25:40.716Z,12.84
2023-05-13T01:28:09.140Z,12.89
2023-05-13T01:30:37.546Z,12.81
2023-05-13T01:33:05.903Z,12.75
2023-05-13T01:35:33.745Z,12.85
2023-05-13T01:38:02.598Z,12.65
2023-05-13T01:40:32.394Z,12.74
2023-05-13T01:43:04.869Z,12.87
2023-05-13T01:45:33.348Z,12.73
2023-05-13T01:48:01.594Z,12.82
2023-05-13T01:50:38.210Z,12.82
2023-05-13T01:53:06.339Z,12.78
2023-05-13T01:55:33.461Z,12.71
2023-05-13T01:58:03.724Z,12.66
2023-05-13T02:00:30.715Z,12.56
2023-05-13T02:02:58.144Z,12.66
2023-05-13T02:05:25.463Z,12.52
2023-05-13T02:07:53.342Z,12.49
2023-05-13T02:10:20.494Z,12.45
2023-05-13T02:12:48.108Z,12.35
2023-05-13T02:15:15.372Z,12.40
2023-05-13T02:17:42.719Z,12.41
2023-05-13T02:20:10.778Z,12.43
2023-05-13T02:22:37.951Z,12.45
2023-05-13T02:25:07.853Z,12.39
2023-05-13T02:27:37.673Z,12.48
2023-05-13T02:30:05.706Z,12.51
2023-05-13T02:32:33.913Z,12.47
2023-05-13T02:35:01.091Z,12.55
2023-05-13T02:37:28.170Z,12.57
2023-05-13T02:40:01.372Z,12.44
2023-05-13T02:42:30.854Z,12.52
2023-05-13T02:44:58.711Z,12.66
2023-05-13T02:47:27.450Z,12.36
2023-05-13T02:49:57.079Z,12.72
2023-05-13T02:52:24.229Z,12.69
2023-05-13T02:54:51.324Z,12.80
2023-05-13T02:57:18.376Z,12.83
2023-05-13T02:59:46.285Z,12.85
2023-05-13T03:02:13.335Z,12.97
2023-05-13T03:04:41.444Z,12.95
2023-05-13T03:07:08.589Z,13.12
2023-05-13T03:09:35.677Z,13.14
2023-05-13T03:12:02.973Z,13.29
2023-05-13T03:14:30.051Z,13.24
2023-05-13T03:16:57.333Z,13.36
2023-05-13T03:19:24.410Z,13.50
2023-05-13T03:21:51.532Z,13.55
2023-05-13T03:24:19.141Z,13.65
2023-05-13T03:26:47.306Z,13.72
2023-05-13T03:29:14.512Z,13.83
2023-05-13T03:31:41.906Z,13.90
2023-05-13T03:34:09.105Z,13.95
2023-05-13T03:36:36.138Z,13.97
2023-05-13T03:39:03.410Z,14.06
2023-05-13T03:41:31.282Z,14.15
2023-05-13T03:43:59.925Z,14.24
2023-05-13T03:46:28.004Z,14.24
2023-05-13T03:48:56.194Z,14.42
2023-05-13T03:51:23.738Z,14.44
2023-05-13T03:53:51.420Z,14.56
2023-05-13T03:56:18.439Z,14.64
2023-05-13T03:58:46.534Z,14.74
2023-05-13T04:01:13.535Z,14.83
2023-05-13T04:03:42.946Z,14.93
2023-05-13T04:06:09.943Z,15.03
2023-05-13T04:08:37.118Z,15.24
2023-05-13T04:11:04.194Z,15.46
2023-05-13T04:13:32.673Z,15.67
2023-05-13T04:15:59.701Z,15.83
2023-05-13T04:18:29.282Z,15.96
2023-05-13T04:20:56.410Z,16.05
2023-05-13T04:23:23.456Z,16.12
2023-05-13T04:25:52.426Z,16.09
2023-05-13T04:28:20.829Z,16.26
2023-05-13T04:30:49.357Z,16.35
2023-05-13T04:33:16.868Z,16.36
2023-05-13T04:35:46.266Z,16.41
2023-05-13T04:38:14.418Z,16.48
2023-05-13T04:40:41.477Z,16.63
2023-05-13T04:43:12.470Z,16.67
2023-05-13T04:45:49.135Z,16.87
2023-05-13T04:48:16.868Z,16.73
2023-05-13T04:50:47.849Z,17.12
2023-05-13T04:53:16.579Z,17.19
2023-05-13T04:55:48.340Z,17.25
2023-05-13T04:58:15.613Z,17.30
2023-05-13T05:00:42.889Z,17.36
2023-05-13T05:03:09.914Z,17.42
2023-05-13T05:05:37.594Z,17.47
2023-05-13T05:08:05.598Z,17.55
2023-05-13T05:10:32.625Z,17.61
2023-05-13T05:13:01.291Z,17.77
2023-05-13T05:15:29.943Z,17.85
2023-05-13T05:18:00.061Z,17.99
2023-05-13T05:20:27.744Z,18.07
2023-05-13T05:22:58.453Z,18.24
2023-05-13T05:25:26.904Z,18.26
2023-05-13T05:27:53.936Z,18.39
2023-05-13T05:30:21.821Z,18.34
2023-05-13T05:32:56.648Z,18.55
2023-05-13T05:35:25.145Z,18.71
2023-05-13T05:37:52.863Z,18.76
2023-05-13T05:40:21.747Z,18.39
2023-05-13T05:42:49.954Z,18.81
2023-05-13T05:45:17.127Z,18.90
2023-05-13T05:47:44.648Z,18.90
2023-05-13T05:50:12.373Z,19.04
2023-05-13T05:52:39.943Z,19.12
2023-05-13T05:55:07.727Z,19.17
2023-05-13T05:57:34.722Z,19.22
2023-05-13T06:00:01.727Z,19.32
2023-05-13T06:02:32.596Z,19.43
2023-05-13T06:04:59.934Z,19.55
2023-05-13T06:07:26.956Z,19.67
2023-05-13T06:09:54.008Z,19.77
2023-05-13T06:12:21.255Z,19.66
2023-05-13T06:14:48.501Z,19.97
2023-05-13T06:17:16.447Z,20.04
2023-05-13T06:19:43.484Z,20.16
2023-05-13T06:22:11.147Z,20.20
2023-05-13T06:24:39.205Z,20.48
2023-05-13T06:27:07.079Z,20.79
2023-05-13T06:29:35.118Z,21.07
2023-05-13T06:32:02.229Z,21.30
2023-05-13T06:34:29.577Z,21.15
2023-05-13T06:36:57.293Z,21.45
2023-05-13T06:39:24.842Z,21.41
2023-05-13T06:41:52.030Z,21.42
2023-05-13T06:44:21.137Z,21.39
2023-05-13T06:46:48.234Z,21.41
2023-05-13T06:49:15.446Z,21.42
2023-05-13T06:51:42.530Z,21.43
2023-05-13T06:54:09.518Z,21.58
2023-05-13T06:56:36.858Z,21.65
2023-05-13T06:59:03.907Z,21.72
2023-05-13T07:01:31.123Z,21.77
2023-05-13T07:03:58.270Z,21.79
2023-05-13T07:06:25.466Z,21.83
2023-05-13T07:08:52.464Z,21.83
2023-05-13T07:11:19.523Z,21.87
2023-05-13T07:13:47.282Z,21.76
2023-05-13T07:16:14.888Z,21.65
2023-05-13T07:18:41.908Z,21.93
2023-05-13T07:21:09.090Z,21.93
2023-05-13T07:23:36.136Z,22.04
2023-05-13T07:26:03.374Z,22.08
2023-05-13T07:28:30.595Z,22.07
2023-05-13T07:30:58.407Z,22.10
2023-05-13T07:33:25.447Z,22.08
2023-05-13T07:35:52.993Z,21.87
2023-05-13T07:38:20.019Z,22.06
2023-05-13T07:40:47.116Z,22.07
2023-05-13T07:43:14.226Z,21.98
2023-05-13T07:45:42.368Z,22.12
2023-05-13T07:48:10.268Z,22.16
2023-05-13T07:50:37.821Z,22.28
2023-05-13T07:53:04.858Z,22.26
2023-05-13T07:55:32.062Z,22.31
2023-05-13T07:57:59.101Z,22.28
2023-05-13T08:00:26.127Z,22.17
2023-05-13T08:02:53.584Z,22.16
2023-05-13T08:05:20.924Z,22.28
2023-05-13T08:07:48.411Z,22.23
2023-05-13T08:10:15.478Z,22.33
2023-05-13T08:12:42.485Z,22.13
2023-05-13T08:15:12.071Z,22.31
2023-05-13T08:17:39.188Z,22.30
2023-05-13T08:20:07.050Z,22.37
2023-05-13T08:22:34.203Z,22.49
2023-05-13T08:25:01.359Z,22.63
2023-05-13T08:27:32.651Z,22.71
2023-05-13T08:29:59.771Z,22.68
2023-05-13T08:32:26.917Z,22.64
2023-05-13T08:34:54.243Z,22.65
2023-05-13T08:37:21.274Z,22.67
2023-05-13T08:39:48.382Z,22.69
2023-05-13T08:42:19.396Z,22.70
2023-05-13T08:44:47.258Z,22.71
2023-05-13T08:47:30.694Z,22.74
2023-05-13T08:49:58.249Z,22.63
2023-05-13T08:52:26.725Z,22.73
2023-05-13T08:54:54.033Z,22.87
2023-05-13T08:57:21.737Z,22.97
2023-05-13T08:59:48.791Z,22.99
2023-05-13T09:02:16.095Z,22.80
2023-05-13T09:04:45.235Z,22.85
2023-05-13T09:07:12.588Z,22.89
2023-05-13T09:09:39.793Z,22.98
2023-05-13T09:12:07.792Z,22.99
2023-05-13T09:14:34.764Z,22.99
2023-05-13T09:17:02.538Z,22.88
2023-05-13T09:19:29.850Z,23.04
2023-05-13T09:21:57.722Z,23.18
2023-05-13T09:24:24.754Z,23.31
2023-05-13T09:26:52.071Z,23.47
2023-05-13T09:29:31.328Z,23.53
2023-05-13T09:32:01.223Z,23.49
2023-05-13T09:34:33.675Z,23.66
2023-05-13T09:37:04.698Z,23.59
2023-05-13T09:39:43.107Z,23.50
2023-05-13T09:42:17.281Z,23.56
2023-05-13T09:44:45.150Z,23.74
2023-05-13T09:47:16.391Z,23.88
2023-05-13T09:49:56.632Z,24.01
2023-05-13T09:52:23.815Z,24.04
2023-05-13T09:54:50.874Z,24.10
2023-05-13T09:57:17.930Z,24.16
2023-05-13T09:59:44.860Z,24.07
2023-05-13T10:02:15.537Z,23.99
2023-05-13T10:04:43.812Z,24.00
2023-05-13T10:07:12.537Z,24.06
2023-05-13T10:09:40.777Z,24.02
2023-05-13T10:12:09.049Z,23.91
2023-05-13T10:14:39.946Z,23.88
2023-05-13T10:17:07.987Z,23.72
2023-05-13T10:19:35.595Z,23.65
2023-05-13T10:22:03.064Z,23.59
2023-05-13T10:24:30.699Z,23.66
2023-05-13T10:26:58.852Z,23.49
2023-05-13T10:29:27.155Z,23.59
2023-05-13T10:31:55.089Z,23.66
2023-05-13T10:34:23.113Z,23.74
2023-05-13T10:36:52.841Z,23.83
2023-05-13T10:39:25.848Z,23.86
2023-05-13T10:42:05.008Z,23.96
2023-05-13T10:44:33.702Z,23.93
2023-05-13T10:47:02.545Z,23.90
2023-05-13T10:49:36.526Z,23.92
2023-05-13T10:52:05.645Z,24.02
2023-05-13T10:54:38.901Z,24.00
2023-05-13T10:57:06.932Z,23.98
2023-05-13T10:59:35.991Z,23.95
2023-05-13T11:02:23.793Z,24.18
2023-05-13T11:05:01.139Z,24.28
2023-05-13T11:07:29.961Z,24.35
2023-05-13T11:09:57.050Z,24.44
2023-05-13T11:12:24.059Z,24.53
2023-05-13T11:14:55.989Z,24.54
2023-05-13T11:17:23.131Z,24.75
2023-05-13T11:19:51.647Z,24.80
2023-05-13T11:22:18.597Z,24.87
2023-05-13T11:24:47.784Z,24.89
2023-05-13T11:27:21.276Z,24.98
2023-05-13T11:29:56.056Z,25.02
2023-05-13T11:32:51.549Z,25.02
2023-05-13T11:35:29.481Z,25.00
2023-05-13T11:38:00.003Z,25.08
2023-05-13T11:40:31.410Z,25.14
2023-05-13T11:42:59.285Z,25.09
2023-05-13T11:45:27.835Z,24.91
2023-05-13T11:47:56.466Z,24.90
2023-05-13T11:50:30.243Z,24.90
2023-05-13T11:52:59.252Z,24.89
2023-05-13T11:55:30.445Z,24.87
2023-05-13T11:57:58.829Z,24.92
2023-05-13T12:00:27.542Z,24.95
2023-05-13T12:02:55.719Z,24.97
2023-05-13T12:05:23.631Z,24.87
2023-05-13T12:07:51.506Z,24.81
2023-05-13T12:10:18.681Z,24.80
2023-05-13T12:12:46.523Z,24.71
2023-05-13T12:15:18.505Z,24.62
2023-05-13T12:17:46.218Z,24.52
2023-05-13T12:20:21.207Z,24.60
2023-05-13T12:22:48.314Z,24.53
2023-05-13T12:25:40.423Z,24.55
2023-05-13T12:28:16.596Z,24.49
2023-05-13T12:30:54.082Z,24.58
2023-05-13T12:33:25.597Z,24.52
2023-05-13T12:35:54.572Z,24.54
2023-05-13T12:38:24.749Z,24.43
2023-05-13T12:40:52.590Z,24.53
2023-05-13T12:43:20.424Z,24.43
2023-05-13T12:45:52.695Z,24.32
2023-05-13T12:48:23.387Z,24.28
2023-05-13T12:50:51.547Z,24.32
2023-05-13T12:53:18.622Z,24.21
2023-05-13T12:55:45.800Z,24.26
2023-05-13T12:58:13.290Z,24.14
2023-05-13T13:00:40.522Z,23.98
2023-05-13T13:03:08.386Z,24.11
2023-05-13T13:05:35.807Z,24.09
2023-05-13T13:08:05.388Z,24.09
2023-05-13T13:10:32.978Z,24.09
2023-05-13T13:13:00.172Z,24.09
2023-05-13T13:15:27.354Z,24.06
2023-05-13T13:17:54.437Z,24.01
2023-05-13T13:20:21.464Z,23.97
2023-05-13T13:22:48.525Z,23.94
2023-05-13T13:25:15.845Z,23.94
2023-05-13T13:27:42.870Z,23.77
2023-05-13T13:30:10.212Z,23.73
2023-05-13T13:32:37.304Z,23.72
2023-05-13T13:35:05.777Z,23.95
2023-05-13T13:37:33.484Z,23.90
2023-05-13T13:40:00.967Z,23.83
2023-05-13T13:42:40.153Z,23.90
2023-05-13T13:45:10.910Z,23.86
2023-05-13T13:47:38.575Z,23.79
2023-05-13T13:50:06.651Z,23.80
2023-05-13T13:52:33.785Z,23.70
2023-05-13T13:55:00.842Z,23.60
2023-05-13T13:57:28.328Z,23.64
2023-05-13T13:59:55.401Z,23.54
2023-05-13T14:02:22.672Z,23.52
2023-05-13T14:04:49.779Z,23.40
2023-05-13T14:07:17.025Z,23.35
2023-05-13T14:09:44.033Z,23.26
2023-05-13T14:12:11.142Z,23.35
2023-05-13T14:14:38.151Z,23.29
2023-05-13T14:17:05.444Z,23.36
2023-05-13T14:19:32.453Z,23.20
2023-05-13T14:21:59.617Z,23.35
2023-05-13T14:24:27.741Z,23.17
2023-05-13T14:26:55.373Z,23.52
2023-05-13T14:29:22.431Z,23.56
2023-05-13T14:31:49.828Z,23.58
2023-05-13T14:34:16.872Z,23.52
2023-05-13T14:36:43.923Z,23.58
2023-05-13T14:39:11.125Z,23.55
2023-05-13T14:41:39.516Z,23.51
2023-05-13T14:44:06.644Z,23.47
2023-05-13T14:46:37.216Z,23.39
2023-05-13T14:49:04.305Z,23.42
2023-05-13T14:51:31.486Z,23.41
2023-05-13T14:53:58.523Z,23.40
2023-05-13T14:56:25.565Z,23.37
2023-05-13T14:58:53.405Z,23.34
2023-05-13T15:01:20.694Z,23.35
2023-05-13T15:03:47.736Z,23.31
2023-05-13T15:06:14.803Z,23.33
2023-05-13T15:08:41.954Z,23.19
2023-05-13T15:11:08.976Z,23.29
2023-05-13T15:13:37.008Z,23.32
2023-05-13T15:16:04.796Z,23.22
2023-05-13T15:18:31.944Z,23.29
2023-05-13T15:20:59.026Z,23.20
2023-05-13T15:23:26.028Z,23.19
2023-05-13T15:25:53.070Z,23.07
2023-05-13T15:28:20.092Z,23.08
2023-05-13T15:30:47.231Z,23.05
2023-05-13T15:33:14.277Z,23.01
2023-05-13T15:35:42.597Z,22.95
2023-05-13T15:38:10.884Z,22.69
2023-05-13T15:40:41.212Z,22.82
2023-05-13T15:43:08.425Z,22.68
2023-05-13T15:45:35.669Z,22.66
2023-05-13T15:48:02.824Z,22.65
2023-05-13T15:50:29.950Z,22.63
2023-05-13T15:52:56.963Z,22.55
2023-05-13T15:55:23.960Z,22.60
2023-05-13T15:57:51.118Z,22.59
2023-05-13T16:00:18.835Z,22.49
2023-05-13T16:02:46.081Z,22.57
2023-05-13T16:05:19.328Z,22.56
2023-05-13T16:07:46.454Z,22.51
2023-05-13T16:10:13.618Z,22.45
2023-05-13T16:12:41.112Z,22.37
2023-05-13T16:15:08.713Z,22.40
2023-05-13T16:17:35.999Z,22.39
2023-05-13T16:20:03.544Z,22.32
2023-05-13T16:22:33.688Z,22.29
2023-05-13T16:25:03.326Z,22.24
2023-05-13T16:27:32.930Z,22.21
2023-05-13T16:30:00.959Z,22.18
2023-05-13T16:32:29.107Z,22.08
2023-05-13T16:34:56.595Z,22.11
2023-05-13T16:37:23.723Z,22.01
2023-05-13T16:39:50.803Z,22.01
2023-05-13T16:42:19.448Z,21.98
2023-05-13T16:44:49.344Z,22.02
2023-05-13T16:47:16.472Z,22.00
2023-05-13T16:49:43.615Z,21.89
2023-05-13T16:52:10.707Z,21.93
2023-05-13T16:54:37.734Z,21.89
2023-05-13T16:57:04.882Z,21.81
2023-05-13T16:59:31.952Z,21.80
2023-05-13T17:02:00.006Z,21.76
2023-05-13T17:04:28.493Z,21.74
2023-05-13T17:06:57.569Z,21.68
2023-05-13T17:09:26.226Z,21.58
2023-05-13T17:11:54.519Z,21.57
2023-05-13T17:14:22.239Z,21.51
2023-05-13T17:16:49.511Z,21.49
2023-05-13T17:19:16.739Z,21.48
2023-05-13T17:21:43.783Z,21.28
2023-05-13T17:24:11.063Z,21.35
2023-05-13T17:26:38.917Z,21.28
2023-05-13T17:29:06.391Z,21.24
2023-05-13T17:31:34.019Z,21.25
2023-05-13T17:34:01.116Z,21.22
2023-05-13T17:36:28.260Z,21.20
2023-05-13T17:38:55.325Z,21.11
2023-05-13T17:41:22.684Z,21.10
2023-05-13T17:43:49.747Z,21.08
2023-05-13T17:46:16.898Z,20.96
2023-05-13T17:48:43.991Z,20.99
2023-05-13T17:51:11.434Z,20.94
2023-05-13T17:53:38.457Z,20.90
2023-05-13T17:56:08.383Z,20.88
2023-05-13T17:58:35.467Z,20.83
2023-05-13T18:01:02.666Z,20.77
2023-05-13T18:03:29.775Z,20.81
2023-05-13T18:05:57.055Z,20.78
2023-05-13T18:08:24.182Z,20.73
2023-05-13T18:10:51.235Z,20.62
2023-05-13T18:13:18.274Z,20.60
2023-05-13T18:15:45.619Z,20.56
2023-05-13T18:18:13.517Z,20.47
2023-05-13T18:20:42.159Z,20.01
2023-05-13T18:23:09.422Z,20.23
2023-05-13T18:25:42.605Z,20.33
2023-05-13T18:28:19.344Z,20.26
2023-05-13T18:30:46.361Z,20.21
2023-05-13T18:33:13.414Z,20.12
2023-05-13T18:35:40.581Z,20.03
2023-05-13T18:38:07.669Z,20.04
2023-05-13T18:40:34.773Z,20.00
2023-05-13T18:43:01.827Z,19.96
2023-05-13T18:45:28.892Z,19.92
2023-05-13T18:47:56.119Z,19.84
2023-05-13T18:50:23.365Z,19.78
2023-05-13T18:52:50.537Z,19.74
2023-05-13T18:55:18.589Z,19.66
2023-05-13T18:57:45.598Z,19.38
2023-05-13T19:00:13.431Z,19.55
2023-05-13T19:02:40.819Z,19.38
2023-05-13T19:05:08.476Z,19.42
2023-05-13T19:07:35.617Z,19.42
2023-05-13T19:10:02.959Z,19.39
2023-05-13T19:12:31.483Z,19.34
2023-05-13T19:14:58.485Z,19.23
2023-05-13T19:17:25.751Z,19.25
2023-05-13T19:19:52.829Z,19.16
2023-05-13T19:22:19.892Z,19.17
2023-05-13T19:24:46.910Z,19.12
2023-05-13T19:27:14.047Z,19.08
2023-05-13T19:29:41.234Z,19.05
2023-05-13T19:32:08.240Z,19.02
2023-05-13T19:34:35.269Z,18.69
2023-05-13T19:37:02.430Z,18.77
2023-05-13T19:39:29.759Z,18.91
2023-05-13T19:41:56.803Z,18.88
2023-05-13T19:44:25.821Z,18.79
2023-05-13T19:46:52.967Z,18.78
2023-05-13T19:49:20.158Z,18.78
2023-05-13T19:51:47.170Z,18.74
2023-05-13T19:54:14.215Z,18.76
2023-05-13T19:56:41.592Z,18.71
2023-05-13T19:59:08.845Z,18.65
2023-05-13T20:01:37.760Z,18.62
2023-05-13T20:04:05.128Z,18.40
2023-05-13T20:06:32.775Z,18.58
2023-05-13T20:09:00.975Z,18.53
2023-05-13T20:11:28.372Z,18.52
2023-05-13T20:13:55.944Z,18.48
2023-05-13T20:16:23.626Z,18.30
2023-05-13T20:18:51.571Z,18.44
2023-05-13T20:21:18.637Z,18.36
2023-05-13T20:23:45.640Z,18.35
2023-05-13T20:26:12.740Z,18.29
2023-05-13T20:28:39.715Z,18.28
2023-05-13T20:31:06.916Z,18.30
2023-05-13T20:33:34.014Z,18.28
2023-05-13T20:36:01.114Z,18.29
2023-05-13T20:38:28.249Z,18.32
2023-05-13T20:40:55.250Z,18.30
2023-05-13T20:43:22.242Z,18.29
2023-05-13T20:45:49.236Z,18.29
2023-05-13T20:48:16.304Z,18.23
2023-05-13T20:50:43.371Z,18.18
2023-05-13T20:53:10.357Z,18.10
2023-05-13T20:55:37.377Z,18.02
2023-05-13T20:58:04.450Z,17.99
2023-05-13T21:00:31.493Z,17.92
2023-05-13T21:02:58.806Z,17.91
2023-05-13T21:05:26.069Z,17.83
2023-05-13T21:07:53.287Z,17.79
2023-05-13T21:10:20.459Z,17.71
2023-05-13T21:12:48.216Z,17.70
2023-05-13T21:15:15.460Z,17.65
2023-05-13T21:17:42.599Z,17.51
2023-05-13T21:20:11.164Z,17.50
2023-05-13T21:22:38.146Z,17.35
2023-05-13T21:25:05.836Z,17.39
2023-05-13T21:27:33.262Z,17.19
2023-05-13T21:30:00.326Z,17.28
2023-05-13T21:32:27.559Z,17.21
2023-05-13T21:34:55.370Z,17.15
2023-05-13T21:37:22.999Z,17.15
2023-05-13T21:39:49.996Z,17.09
2023-05-13T21:42:16.992Z,17.16
2023-05-13T21:44:44.022Z,17.08
2023-05-13T21:47:11.035Z,17.03
2023-05-13T21:49:38.092Z,17.07
2023-05-13T21:52:05.775Z,16.70
2023-05-13T21:54:32.794Z,16.99
2023-05-13T21:56:59.943Z,16.90
2023-05-13T21:59:27.116Z,16.89
2023-05-13T22:01:54.138Z,16.87
2023-05-13T22:04:21.161Z,16.84
2023-05-13T22:06:48.351Z,16.82
2023-05-13T22:09:15.682Z,16.81
2023-05-13T22:11:42.705Z,16.78
2023-05-13T22:14:09.686Z,16.71
2023-05-13T22:16:36.813Z,16.71
2023-05-13T22:19:04.703Z,16.69
2023-05-13T22:21:32.523Z,16.64
2023-05-13T22:23:59.610Z,16.53
2023-05-13T22:26:26.611Z,16.43
2023-05-13T22:28:53.665Z,16.43
2023-05-13T22:31:21.124Z,16.35
2023-05-13T22:33:48.237Z,16.29
2023-05-13T22:36:15.582Z,16.20
2023-05-13T22:38:42.869Z,16.16
2023-05-13T22:41:11.690Z,16.18
2023-05-13T22:43:38.860Z,15.91
2023-05-13T22:46:05.892Z,16.06
2023-05-13T22:48:32.994Z,16.05
2023-05-13T22:51:00.042Z,16.01
2023-05-13T22:53:27.082Z,16.03
2023-05-13T22:55:54.304Z,16.04
2023-05-13T22:58:21.428Z,15.99
2023-05-13T23:00:49.670Z,16.03
2023-05-13T23:03:17.228Z,16.00
2023-05-13T23:05:44.401Z,15.94
2023-05-13T23:08:11.373Z,15.81
2023-05-13T23:10:38.517Z,15.78
2023-05-13T23:13:06.383Z,15.81
2023-05-13T23:15:33.682Z,15.73
2023-05-13T23:18:00.818Z,15.64
2023-05-13T23:20:27.918Z,15.69
2023-05-13T23:22:55.503Z,15.65
2023-05-13T23:25:22.529Z,15.56
2023-05-13T23:27:51.329Z,15.15
2023-05-13T23:30:18.480Z,15.31
2023-05-13T23:32:46.137Z,15.34
2023-05-13T23:35:13.342Z,15.32
2023-05-13T23:37:40.369Z,15.28
2023-05-13T23:40:07.826Z,15.23
2023-05-13T23:42:34.851Z,15.20
2023-05-13T23:45:02.025Z,15.08
2023-05-13T23:47:34.173Z,15.16
2023-05-13T23:50:02.274Z,15.12
2023-05-13T23:52:31.947Z,14.83
2023-05-13T23:55:00.730Z,15.09
2023-05-13T23:57:27.843Z,14.96
2023-05-13T23:59:55.609Z,15.00
